X  Fermer Données météorologiques d'aviation de Metar     EHKD De Kooy Airport
Température
6°C Température
1°C Point de rosée
71% Humidité



Vent
24 KM/H
15 MPH
7 M/S
13 KTS



30°
NNE
Conditions actuelles

Ciel couvert Ciel couvert
Pression 1016.93 (hPa) - 30.03 (inHg)
Visibilité 6 (mile) - 9.7 (km)
Aéroport
Code de l'aéroport EHKD

Emplacement: De Kooy Airport
Distance: 34 (km)

Metar:
EHKD 262344Z AUTO 03013KT 360V060 9999 OVC025 06/01 Q1017 BLU

Temps: 27-02-2024 00:44 CET